This is the latest recevied weather packets stored in our database for station/object HS9UAC-10. If no packets are shown the sender has not sent any weather packets the latest 10 day(s).
| Time | Temp. | Humidity | Pressure | Rain* | Wind** | Luminosity | Snow |
|---|---|---|---|---|---|---|---|
| 1777389228 | 34.44° C | 86% | 1008 hPa | - | - | 0 W/m² | - |
| 1777388304 | 35° C | 83% | 1008 hPa | - | - | 0 W/m² | - |
| 1777387379 | 34.44° C | 84% | 1007 hPa | - | - | 0 W/m² | - |
| 1777386455 | 35° C | 80% | 1007 hPa | - | - | 0 W/m² | - |
| 1777385530 | 34.44° C | 83% | 1007 hPa | - | - | 0 W/m² | - |
| 1777384606 | 34.44° C | 81% | 1007 hPa | - | - | 0 W/m² | - |
| 1777383681 | 34.44° C | 81% | 1007 hPa | - | - | 0 W/m² | - |
| 1777382756 | 35° C | 79% | 1007 hPa | - | - | 0 W/m² | - |
| 1777381832 | 34.44° C | 80% | 1006 hPa | - | - | 0 W/m² | - |
| 1777380907 | 35° C | 80% | 1006 hPa | - | - | 0 W/m² | - |
| 1777379983 | 35.56° C | 77% | 1006 hPa | - | - | 0 W/m² | - |
| 1777379058 | 35° C | 78% | 1006 hPa | - | - | 0 W/m² | - |
| 1777378134 | 35.56° C | 73% | 1006 hPa | - | - | 0 W/m² | - |
| 1777377209 | 36.11° C | 70% | 1006 hPa | - | - | 0 W/m² | - |
| 1777376285 | 36.67° C | 67% | 1005 hPa | - | - | 0 W/m² | - |
| 1777375360 | 36.11° C | 64% | 1005 hPa | - | - | 0 W/m² | - |
| 1777374435 | 37.22° C | 60% | 1005 hPa | - | - | 0 W/m² | - |
| 1777373510 | 37.78° C | 54% | 1005 hPa | - | - | 0 W/m² | - |
| 1777372586 | 38.33° C | 55% | 1004 hPa | - | - | 0 W/m² | - |
| 1777371661 | 38.89° C | 54% | 1004 hPa | - | - | 0 W/m² | - |
| 1777371282 | 38.89° C | 56% | 1004 hPa | - | - | 0 W/m² | - |
| 1777370358 | 40.56° C | 51% | 1004 hPa | - | - | 0 W/m² | - |
| 1777369433 | 38.89° C | 53% | 1004 hPa | - | - | 0 W/m² | - |
| 1777368509 | 40.56° C | 48% | 1004 hPa | - | - | 0 W/m² | - |
| 1777367584 | 41.11° C | 48% | 1004 hPa | - | - | 0 W/m² | - |
* Rain since midnight (hover to see other rain measurements)
** Current wind speed in m/s (hover to see current wind gust speed)